sensor_id;sensor_type;location;lat;lon;timestamp;temperature;humidity
65824;SHT31;52585;47.566;19.056;2022-12-20T00:01:27;5.49;56.29
65824;SHT31;52585;47.566;19.056;2022-12-20T00:03:57;5.47;56.37
65824;SHT31;52585;47.566;19.056;2022-12-20T00:06:29;5.44;56.40
65824;SHT31;52585;47.566;19.056;2022-12-20T00:08:58;5.42;56.47
65824;SHT31;52585;47.566;19.056;2022-12-20T00:11:26;5.40;56.57
65824;SHT31;52585;47.566;19.056;2022-12-20T00:13:53;5.36;56.61
65824;SHT31;52585;47.566;19.056;2022-12-20T00:16:20;5.36;56.65
65824;SHT31;52585;47.566;19.056;2022-12-20T00:18:52;5.35;56.61
65824;SHT31;52585;47.566;19.056;2022-12-20T00:21:21;5.32;56.67
65824;SHT31;52585;47.566;19.056;2022-12-20T00:23:47;5.30;56.64
65824;SHT31;52585;47.566;19.056;2022-12-20T00:26:15;5.29;56.74
65824;SHT31;52585;47.566;19.056;2022-12-20T00:28:44;5.27;56.86
65824;SHT31;52585;47.566;19.056;2022-12-20T00:31:11;5.26;56.97
65824;SHT31;52585;47.566;19.056;2022-12-20T00:33:40;5.24;56.98
65824;SHT31;52585;47.566;19.056;2022-12-20T00:36:10;5.20;57.06
65824;SHT31;52585;47.566;19.056;2022-12-20T00:38:36;5.20;57.13
65824;SHT31;52585;47.566;19.056;2022-12-20T00:41:02;5.19;57.15
65824;SHT31;52585;47.566;19.056;2022-12-20T00:43:31;5.17;57.20
65824;SHT31;52585;47.566;19.056;2022-12-20T00:45:58;5.15;57.27
65824;SHT31;52585;47.566;19.056;2022-12-20T00:48:25;5.14;57.30
65824;SHT31;52585;47.566;19.056;2022-12-20T00:50:56;5.12;57.37
65824;SHT31;52585;47.566;19.056;2022-12-20T00:53:35;5.11;57.41
65824;SHT31;52585;47.566;19.056;2022-12-20T00:56:02;5.10;57.46
65824;SHT31;52585;47.566;19.056;2022-12-20T00:58:30;5.09;57.50
65824;SHT31;52585;47.566;19.056;2022-12-20T01:00:58;5.07;57.47
65824;SHT31;52585;47.566;19.056;2022-12-20T01:03:24;5.07;57.57
65824;SHT31;52585;47.566;19.056;2022-12-20T01:08:23;5.05;57.69
65824;SHT31;52585;47.566;19.056;2022-12-20T01:10:58;5.05;57.68
65824;SHT31;52585;47.566;19.056;2022-12-20T01:13:39;5.05;57.70
65824;SHT31;52585;47.566;19.056;2022-12-20T01:16:11;5.03;57.67
65824;SHT31;52585;47.566;19.056;2022-12-20T01:18:47;5.03;57.70
65824;SHT31;52585;47.566;19.056;2022-12-20T01:21:14;5.01;57.65
65824;SHT31;52585;47.566;19.056;2022-12-20T01:23:42;5.01;57.72
65824;SHT31;52585;47.566;19.056;2022-12-20T01:26:10;5.00;57.87
65824;SHT31;52585;47.566;19.056;2022-12-20T01:28:39;4.99;57.87
65824;SHT31;52585;47.566;19.056;2022-12-20T01:31:08;4.99;57.85
65824;SHT31;52585;47.566;19.056;2022-12-20T01:33:38;4.96;57.93
65824;SHT31;52585;47.566;19.056;2022-12-20T01:36:05;4.95;58.12
65824;SHT31;52585;47.566;19.056;2022-12-20T01:38:35;4.93;58.08
65824;SHT31;52585;47.566;19.056;2022-12-20T01:41:01;4.93;57.95
65824;SHT31;52585;47.566;19.056;2022-12-20T01:46:19;4.93;58.07
65824;SHT31;52585;47.566;19.056;2022-12-20T01:48:50;4.93;58.00
65824;SHT31;52585;47.566;19.056;2022-12-20T01:51:23;4.91;58.02
65824;SHT31;52585;47.566;19.056;2022-12-20T01:53:54;4.91;58.03
65824;SHT31;52585;47.566;19.056;2022-12-20T01:56:31;4.90;58.06
65824;SHT31;52585;47.566;19.056;2022-12-20T01:58:56;4.88;58.13
65824;SHT31;52585;47.566;19.056;2022-12-20T02:01:24;4.88;58.24
65824;SHT31;52585;47.566;19.056;2022-12-20T02:03:53;4.85;58.20
65824;SHT31;52585;47.566;19.056;2022-12-20T02:06:21;4.85;58.19
65824;SHT31;52585;47.566;19.056;2022-12-20T02:08:50;4.85;58.11
65824;SHT31;52585;47.566;19.056;2022-12-20T02:31:42;4.79;58.29
65824;SHT31;52585;47.566;19.056;2022-12-20T02:34:34;4.77;58.30
65824;SHT31;52585;47.566;19.056;2022-12-20T02:37:02;4.76;58.34
65824;SHT31;52585;47.566;19.056;2022-12-20T02:39:29;4.75;58.45
65824;SHT31;52585;47.566;19.056;2022-12-20T02:42:00;4.75;58.56
65824;SHT31;52585;47.566;19.056;2022-12-20T02:44:32;4.72;58.57
65824;SHT31;52585;47.566;19.056;2022-12-20T02:48:22;4.73;58.59
65824;SHT31;52585;47.566;19.056;2022-12-20T02:50:27;4.72;58.63
65824;SHT31;52585;47.566;19.056;2022-12-20T02:53:10;4.71;58.70
65824;SHT31;52585;47.566;19.056;2022-12-20T02:55:46;4.72;58.72
65824;SHT31;52585;47.566;19.056;2022-12-20T02:58:35;4.71;58.94
65824;SHT31;52585;47.566;19.056;2022-12-20T03:01:15;4.70;58.83
65824;SHT31;52585;47.566;19.056;2022-12-20T03:03:48;4.71;58.79
65824;SHT31;52585;47.566;19.056;2022-12-20T03:06:16;4.72;58.70
65824;SHT31;52585;47.566;19.056;2022-12-20T03:08:42;4.71;58.74
65824;SHT31;52585;47.566;19.056;2022-12-20T03:11:08;4.72;58.76
65824;SHT31;52585;47.566;19.056;2022-12-20T03:13:33;4.72;58.78
65824;SHT31;52585;47.566;19.056;2022-12-20T03:16:00;4.71;58.77
65824;SHT31;52585;47.566;19.056;2022-12-20T03:18:26;4.69;58.85
65824;SHT31;52585;47.566;19.056;2022-12-20T03:20:52;4.68;58.84
65824;SHT31;52585;47.566;19.056;2022-12-20T03:23:17;4.68;58.82
65824;SHT31;52585;47.566;19.056;2022-12-20T03:25:43;4.69;58.86
65824;SHT31;52585;47.566;19.056;2022-12-20T03:28:08;4.68;58.83
65824;SHT31;52585;47.566;19.056;2022-12-20T03:30:34;4.69;58.81
65824;SHT31;52585;47.566;19.056;2022-12-20T03:32:59;4.69;58.74
65824;SHT31;52585;47.566;19.056;2022-12-20T03:35:25;4.69;58.80
65824;SHT31;52585;47.566;19.056;2022-12-20T03:37:50;4.68;58.73
65824;SHT31;52585;47.566;19.056;2022-12-20T03:40:16;4.67;58.76
65824;SHT31;52585;47.566;19.056;2022-12-20T03:42:42;4.68;58.71
65824;SHT31;52585;47.566;19.056;2022-12-20T03:45:08;4.66;58.71
65824;SHT31;52585;47.566;19.056;2022-12-20T03:47:34;4.67;58.73
65824;SHT31;52585;47.566;19.056;2022-12-20T03:49:59;4.67;58.79
65824;SHT31;52585;47.566;19.056;2022-12-20T03:52:25;4.65;58.80
65824;SHT31;52585;47.566;19.056;2022-12-20T03:54:51;4.65;58.79
65824;SHT31;52585;47.566;19.056;2022-12-20T03:57:16;4.64;58.80
65824;SHT31;52585;47.566;19.056;2022-12-20T03:59:42;4.64;58.80
65824;SHT31;52585;47.566;19.056;2022-12-20T04:02:08;4.64;58.86
65824;SHT31;52585;47.566;19.056;2022-12-20T04:04:34;4.62;58.83
65824;SHT31;52585;47.566;19.056;2022-12-20T04:07:01;4.60;58.93
65824;SHT31;52585;47.566;19.056;2022-12-20T04:09:26;4.59;59.00
65824;SHT31;52585;47.566;19.056;2022-12-20T04:11:52;4.60;59.07
65824;SHT31;52585;47.566;19.056;2022-12-20T04:14:18;4.59;59.00
65824;SHT31;52585;47.566;19.056;2022-12-20T04:16:43;4.59;59.00
65824;SHT31;52585;47.566;19.056;2022-12-20T04:19:10;4.59;59.09
65824;SHT31;52585;47.566;19.056;2022-12-20T04:21:36;4.58;59.12
65824;SHT31;52585;47.566;19.056;2022-12-20T04:24:02;4.57;59.09
65824;SHT31;52585;47.566;19.056;2022-12-20T04:26:30;4.57;59.13
65824;SHT31;52585;47.566;19.056;2022-12-20T04:28:56;4.58;59.14
65824;SHT31;52585;47.566;19.056;2022-12-20T04:31:22;4.58;59.09
65824;SHT31;52585;47.566;19.056;2022-12-20T04:33:48;4.60;59.09
65824;SHT31;52585;47.566;19.056;2022-12-20T04:36:14;4.59;59.00
65824;SHT31;52585;47.566;19.056;2022-12-20T04:38:40;4.59;59.02
65824;SHT31;52585;47.566;19.056;2022-12-20T04:41:06;4.59;59.09
65824;SHT31;52585;47.566;19.056;2022-12-20T04:43:31;4.59;59.09
65824;SHT31;52585;47.566;19.056;2022-12-20T04:45:57;4.60;59.09
65824;SHT31;52585;47.566;19.056;2022-12-20T04:48:24;4.59;59.03
65824;SHT31;52585;47.566;19.056;2022-12-20T04:50:51;4.59;59.09
65824;SHT31;52585;47.566;19.056;2022-12-20T04:53:21;4.56;59.11
65824;SHT31;52585;47.566;19.056;2022-12-20T04:56:06;4.57;59.13
65824;SHT31;52585;47.566;19.056;2022-12-20T04:58:32;4.57;59.10
65824;SHT31;52585;47.566;19.056;2022-12-20T05:00:58;4.57;59.18
65824;SHT31;52585;47.566;19.056;2022-12-20T05:03:25;4.58;59.09
65824;SHT31;52585;47.566;19.056;2022-12-20T05:05:51;4.59;59.10
65824;SHT31;52585;47.566;19.056;2022-12-20T05:08:18;4.58;59.10
65824;SHT31;52585;47.566;19.056;2022-12-20T05:10:44;4.59;59.20
65824;SHT31;52585;47.566;19.056;2022-12-20T05:13:10;4.57;59.18
65824;SHT31;52585;47.566;19.056;2022-12-20T05:15:35;4.57;59.14
65824;SHT31;52585;47.566;19.056;2022-12-20T05:18:02;4.58;59.19
65824;SHT31;52585;47.566;19.056;2022-12-20T05:20:29;4.57;59.16
65824;SHT31;52585;47.566;19.056;2022-12-20T05:22:56;4.57;59.18
65824;SHT31;52585;47.566;19.056;2022-12-20T05:25:42;4.58;59.15
65824;SHT31;52585;47.566;19.056;2022-12-20T05:28:34;4.56;59.12
65824;SHT31;52585;47.566;19.056;2022-12-20T05:31:01;4.57;59.13
65824;SHT31;52585;47.566;19.056;2022-12-20T05:33:27;4.55;59.19
65824;SHT31;52585;47.566;19.056;2022-12-20T05:35:53;4.53;59.20
65824;SHT31;52585;47.566;19.056;2022-12-20T05:38:20;4.55;59.19
65824;SHT31;52585;47.566;19.056;2022-12-20T05:40:47;4.54;59.21
65824;SHT31;52585;47.566;19.056;2022-12-20T05:43:14;4.54;59.20
65824;SHT31;52585;47.566;19.056;2022-12-20T05:45:44;4.53;59.20
65824;SHT31;52585;47.566;19.056;2022-12-20T05:48:12;4.52;59.36
65824;SHT31;52585;47.566;19.056;2022-12-20T05:50:39;4.52;59.32
65824;SHT31;52585;47.566;19.056;2022-12-20T05:53:04;4.51;59.30
65824;SHT31;52585;47.566;19.056;2022-12-20T05:55:30;4.49;59.30
65824;SHT31;52585;47.566;19.056;2022-12-20T05:57:56;4.50;59.31
65824;SHT31;52585;47.566;19.056;2022-12-20T06:00:22;4.49;59.31
65824;SHT31;52585;47.566;19.056;2022-12-20T06:02:48;4.48;59.27
65824;SHT31;52585;47.566;19.056;2022-12-20T06:05:13;4.48;59.30
65824;SHT31;52585;47.566;19.056;2022-12-20T06:07:39;4.47;59.33
65824;SHT31;52585;47.566;19.056;2022-12-20T06:10:05;4.47;59.31
65824;SHT31;52585;47.566;19.056;2022-12-20T06:12:32;4.45;59.27
65824;SHT31;52585;47.566;19.056;2022-12-20T06:14:59;4.45;59.37
65824;SHT31;52585;47.566;19.056;2022-12-20T06:17:24;4.44;59.40
65824;SHT31;52585;47.566;19.056;2022-12-20T06:19:50;4.43;59.40
65824;SHT31;52585;47.566;19.056;2022-12-20T06:22:16;4.43;59.43
65824;SHT31;52585;47.566;19.056;2022-12-20T06:24:42;4.43;59.48
65824;SHT31;52585;47.566;19.056;2022-12-20T06:27:09;4.42;59.41
65824;SHT31;52585;47.566;19.056;2022-12-20T06:29:35;4.43;59.43
65824;SHT31;52585;47.566;19.056;2022-12-20T06:32:01;4.42;59.48
65824;SHT31;52585;47.566;19.056;2022-12-20T06:34:31;4.41;59.51
65824;SHT31;52585;47.566;19.056;2022-12-20T06:36:57;4.40;59.53
65824;SHT31;52585;47.566;19.056;2022-12-20T06:39:22;4.38;59.58
65824;SHT31;52585;47.566;19.056;2022-12-20T06:41:48;4.38;59.64
65824;SHT31;52585;47.566;19.056;2022-12-20T06:44:13;4.37;59.73
65824;SHT31;52585;47.566;19.056;2022-12-20T06:46:39;4.34;59.74
65824;SHT31;52585;47.566;19.056;2022-12-20T06:49:06;4.33;59.78
65824;SHT31;52585;47.566;19.056;2022-12-20T06:51:32;4.31;59.76
65824;SHT31;52585;47.566;19.056;2022-12-20T06:53:58;4.32;59.74
65824;SHT31;52585;47.566;19.056;2022-12-20T06:56:23;4.33;59.80
65824;SHT31;52585;47.566;19.056;2022-12-20T06:58:49;4.34;59.77
65824;SHT31;52585;47.566;19.056;2022-12-20T07:08:12;4.31;60.23
65824;SHT31;52585;47.566;19.056;2022-12-20T07:10:37;4.35;59.81
65824;SHT31;52585;47.566;19.056;2022-12-20T07:13:03;4.36;59.68
65824;SHT31;52585;47.566;19.056;2022-12-20T07:15:31;4.35;59.77
65824;SHT31;52585;47.566;19.056;2022-12-20T07:17:56;4.35;59.71
65824;SHT31;52585;47.566;19.056;2022-12-20T07:20:22;4.35;59.64
65824;SHT31;52585;47.566;19.056;2022-12-20T07:22:47;4.34;59.70
65824;SHT31;52585;47.566;19.056;2022-12-20T07:25:13;4.34;59.80
65824;SHT31;52585;47.566;19.056;2022-12-20T07:27:39;4.33;59.80
65824;SHT31;52585;47.566;19.056;2022-12-20T07:30:05;4.33;59.81
65824;SHT31;52585;47.566;19.056;2022-12-20T07:32:32;4.34;59.80
65824;SHT31;52585;47.566;19.056;2022-12-20T07:34:57;4.33;59.88
65824;SHT31;52585;47.566;19.056;2022-12-20T07:37:23;4.34;59.86
65824;SHT31;52585;47.566;19.056;2022-12-20T07:39:48;4.37;60.07
65824;SHT31;52585;47.566;19.056;2022-12-20T07:42:14;4.40;60.19
65824;SHT31;52585;47.566;19.056;2022-12-20T07:44:43;4.42;60.00
65824;SHT31;52585;47.566;19.056;2022-12-20T07:47:08;4.44;59.90
65824;SHT31;52585;47.566;19.056;2022-12-20T07:49:34;4.47;59.73
65824;SHT31;52585;47.566;19.056;2022-12-20T07:52:00;4.48;59.82
65824;SHT31;52585;47.566;19.056;2022-12-20T07:54:32;4.50;59.83
65824;SHT31;52585;47.566;19.056;2022-12-20T07:57:20;4.52;59.74
65824;SHT31;52585;47.566;19.056;2022-12-20T07:59:55;4.52;59.54
65824;SHT31;52585;47.566;19.056;2022-12-20T08:02:27;4.52;59.40
65824;SHT31;52585;47.566;19.056;2022-12-20T08:05:01;4.51;59.51
65824;SHT31;52585;47.566;19.056;2022-12-20T08:07:29;4.51;59.57
65824;SHT31;52585;47.566;19.056;2022-12-20T08:09:56;4.52;59.56
65824;SHT31;52585;47.566;19.056;2022-12-20T08:12:22;4.52;59.50
65824;SHT31;52585;47.566;19.056;2022-12-20T08:14:50;4.51;59.48
65824;SHT31;52585;47.566;19.056;2022-12-20T08:17:20;4.50;59.43
65824;SHT31;52585;47.566;19.056;2022-12-20T08:19:47;4.50;59.50
65824;SHT31;52585;47.566;19.056;2022-12-20T08:22:15;4.50;59.60
65824;SHT31;52585;47.566;19.056;2022-12-20T08:24:44;4.49;59.52
65824;SHT31;52585;47.566;19.056;2022-12-20T08:27:10;4.50;59.48
65824;SHT31;52585;47.566;19.056;2022-12-20T08:29:36;4.48;59.39
65824;SHT31;52585;47.566;19.056;2022-12-20T08:32:02;4.49;59.48
65824;SHT31;52585;47.566;19.056;2022-12-20T08:34:28;4.49;59.62
65824;SHT31;52585;47.566;19.056;2022-12-20T08:36:54;4.50;59.53
65824;SHT31;52585;47.566;19.056;2022-12-20T08:39:21;4.52;59.52
65824;SHT31;52585;47.566;19.056;2022-12-20T08:41:46;4.54;59.59
65824;SHT31;52585;47.566;19.056;2022-12-20T08:44:12;4.55;59.52
65824;SHT31;52585;47.566;19.056;2022-12-20T08:46:38;4.56;59.56
65824;SHT31;52585;47.566;19.056;2022-12-20T08:49:03;4.59;59.51
65824;SHT31;52585;47.566;19.056;2022-12-20T08:51:30;4.61;59.50
65824;SHT31;52585;47.566;19.056;2022-12-20T08:53:56;4.61;59.47
65824;SHT31;52585;47.566;19.056;2022-12-20T08:56:21;4.62;59.32
65824;SHT31;52585;47.566;19.056;2022-12-20T08:58:47;4.62;59.32
65824;SHT31;52585;47.566;19.056;2022-12-20T09:01:14;4.63;59.41
65824;SHT31;52585;47.566;19.056;2022-12-20T09:03:44;4.64;59.31
65824;SHT31;52585;47.566;19.056;2022-12-20T09:06:14;4.66;59.26
65824;SHT31;52585;47.566;19.056;2022-12-20T09:08:46;4.67;59.28
65824;SHT31;52585;47.566;19.056;2022-12-20T09:11:17;4.69;59.26
65824;SHT31;52585;47.566;19.056;2022-12-20T09:13:46;4.71;59.18
65824;SHT31;52585;47.566;19.056;2022-12-20T09:16:16;4.72;59.23
65824;SHT31;52585;47.566;19.056;2022-12-20T09:18:47;4.74;59.33
65824;SHT31;52585;47.566;19.056;2022-12-20T09:21:15;4.76;59.20
65824;SHT31;52585;47.566;19.056;2022-12-20T09:23:41;4.78;59.07
65824;SHT31;52585;47.566;19.056;2022-12-20T09:26:08;4.79;59.18
65824;SHT31;52585;47.566;19.056;2022-12-20T09:28:37;4.80;59.04
65824;SHT31;52585;47.566;19.056;2022-12-20T09:31:04;4.81;58.98
65824;SHT31;52585;47.566;19.056;2022-12-20T09:33:33;4.83;58.90
65824;SHT31;52585;47.566;19.056;2022-12-20T09:35:59;4.83;58.99
65824;SHT31;52585;47.566;19.056;2022-12-20T09:38:27;4.85;58.97
65824;SHT31;52585;47.566;19.056;2022-12-20T09:40:56;4.87;58.81
65824;SHT31;52585;47.566;19.056;2022-12-20T09:43:26;4.88;58.73
65824;SHT31;52585;47.566;19.056;2022-12-20T09:45:53;4.89;58.71
65824;SHT31;52585;47.566;19.056;2022-12-20T09:48:23;4.89;58.69
65824;SHT31;52585;47.566;19.056;2022-12-20T09:53:34;4.93;58.82
65824;SHT31;52585;47.566;19.056;2022-12-20T09:56:15;4.93;58.63
65824;SHT31;52585;47.566;19.056;2022-12-20T09:59:04;4.94;58.57
65824;SHT31;52585;47.566;19.056;2022-12-20T10:01:52;4.95;58.48
65824;SHT31;52585;47.566;19.056;2022-12-20T10:04:26;4.98;58.69
65824;SHT31;52585;47.566;19.056;2022-12-20T10:10:15;5.01;58.54
65824;SHT31;52585;47.566;19.056;2022-12-20T10:15:39;5.01;58.42
65824;SHT31;52585;47.566;19.056;2022-12-20T10:18:45;5.02;58.44
65824;SHT31;52585;47.566;19.056;2022-12-20T10:21:43;5.04;58.37
65824;SHT31;52585;47.566;19.056;2022-12-20T10:24:21;5.05;58.51
65824;SHT31;52585;47.566;19.056;2022-12-20T10:26:54;5.07;58.47
65824;SHT31;52585;47.566;19.056;2022-12-20T10:29:23;5.09;58.48
65824;SHT31;52585;47.566;19.056;2022-12-20T10:31:53;5.12;58.48
65824;SHT31;52585;47.566;19.056;2022-12-20T10:34:24;5.13;58.51
65824;SHT31;52585;47.566;19.056;2022-12-20T10:37:09;5.16;58.53
65824;SHT31;52585;47.566;19.056;2022-12-20T10:39:43;5.19;58.51
65824;SHT31;52585;47.566;19.056;2022-12-20T10:42:23;5.20;58.38
65824;SHT31;52585;47.566;19.056;2022-12-20T10:45:00;5.21;58.43
65824;SHT31;52585;47.566;19.056;2022-12-20T10:47:42;5.22;58.34
65824;SHT31;52585;47.566;19.056;2022-12-20T10:50:14;5.23;58.17
65824;SHT31;52585;47.566;19.056;2022-12-20T10:52:44;5.25;58.18
65824;SHT31;52585;47.566;19.056;2022-12-20T10:55:39;5.25;58.14
65824;SHT31;52585;47.566;19.056;2022-12-20T10:58:30;5.25;58.24
65824;SHT31;52585;47.566;19.056;2022-12-20T11:01:15;5.26;58.30
65824;SHT31;52585;47.566;19.056;2022-12-20T11:04:01;5.27;58.12
65824;SHT31;52585;47.566;19.056;2022-12-20T11:31:24;5.96;57.07
65824;SHT31;52585;47.566;19.056;2022-12-20T11:37:22;5.87;57.26
65824;SHT31;52585;47.566;19.056;2022-12-20T11:40:10;5.84;57.08
65824;SHT31;52585;47.566;19.056;2022-12-20T11:48:35;5.77;57.24
65824;SHT31;52585;47.566;19.056;2022-12-20T11:54:41;5.73;57.14
65824;SHT31;52585;47.566;19.056;2022-12-20T11:57:22;5.72;57.33
65824;SHT31;52585;47.566;19.056;2022-12-20T11:59:58;5.74;57.46
65824;SHT31;52585;47.566;19.056;2022-12-20T12:02:32;5.74;57.59
65824;SHT31;52585;47.566;19.056;2022-12-20T12:05:25;5.75;57.54
65824;SHT31;52585;47.566;19.056;2022-12-20T12:08:02;5.75;57.52
65824;SHT31;52585;47.566;19.056;2022-12-20T12:10:38;5.76;57.57
65824;SHT31;52585;47.566;19.056;2022-12-20T12:13:20;5.77;57.58
65824;SHT31;52585;47.566;19.056;2022-12-20T12:16:02;5.76;57.58
65824;SHT31;52585;47.566;19.056;2022-12-20T12:18:47;5.77;57.48
65824;SHT31;52585;47.566;19.056;2022-12-20T12:21:23;5.77;57.43
65824;SHT31;52585;47.566;19.056;2022-12-20T12:26:47;5.78;57.52
65824;SHT31;52585;47.566;19.056;2022-12-20T12:29:14;5.78;57.53
65824;SHT31;52585;47.566;19.056;2022-12-20T12:43:54;5.74;57.37
65824;SHT31;52585;47.566;19.056;2022-12-20T12:46:33;5.73;57.48
65824;SHT31;52585;47.566;19.056;2022-12-20T12:49:02;5.73;57.44
65824;SHT31;52585;47.566;19.056;2022-12-20T12:51:36;5.73;57.34
65824;SHT31;52585;47.566;19.056;2022-12-20T12:54:15;5.72;57.34
65824;SHT31;52585;47.566;19.056;2022-12-20T12:57:01;5.73;57.33
65824;SHT31;52585;47.566;19.056;2022-12-20T13:04:52;5.75;57.39
65824;SHT31;52585;47.566;19.056;2022-12-20T13:07:39;5.74;57.39
65824;SHT31;52585;47.566;19.056;2022-12-20T13:17:47;5.75;57.27
65824;SHT31;52585;47.566;19.056;2022-12-20T13:20:41;5.75;57.12
65824;SHT31;52585;47.566;19.056;2022-12-20T13:25:34;5.75;57.18
65824;SHT31;52585;47.566;19.056;2022-12-20T13:30:41;5.74;57.05
65824;SHT31;52585;47.566;19.056;2022-12-20T13:33:19;5.74;57.07
65824;SHT31;52585;47.566;19.056;2022-12-20T13:35:58;5.75;57.08
65824;SHT31;52585;47.566;19.056;2022-12-20T13:41:24;5.75;57.03
65824;SHT31;52585;47.566;19.056;2022-12-20T13:44:08;5.74;57.06
65824;SHT31;52585;47.566;19.056;2022-12-20T13:49:21;5.73;57.07
65824;SHT31;52585;47.566;19.056;2022-12-20T13:54:51;5.74;57.07
65824;SHT31;52585;47.566;19.056;2022-12-20T13:57:28;5.74;57.14
65824;SHT31;52585;47.566;19.056;2022-12-20T14:00:04;5.76;57.08
65824;SHT31;52585;47.566;19.056;2022-12-20T14:02:42;5.75;57.14
65824;SHT31;52585;47.566;19.056;2022-12-20T14:07:59;5.74;57.45
65824;SHT31;52585;47.566;19.056;2022-12-20T14:10:31;5.76;57.59
65824;SHT31;52585;47.566;19.056;2022-12-20T14:12:59;5.76;57.78
65824;SHT31;52585;47.566;19.056;2022-12-20T14:15:32;5.76;57.80
65824;SHT31;52585;47.566;19.056;2022-12-20T14:18:06;5.75;57.84
65824;SHT31;52585;47.566;19.056;2022-12-20T14:20:52;5.75;57.96
65824;SHT31;52585;47.566;19.056;2022-12-20T14:23:48;5.74;57.98
65824;SHT31;52585;47.566;19.056;2022-12-20T14:26:21;5.73;58.00
65824;SHT31;52585;47.566;19.056;2022-12-20T14:28:52;5.72;58.05
65824;SHT31;52585;47.566;19.056;2022-12-20T14:33:50;5.68;58.13
65824;SHT31;52585;47.566;19.056;2022-12-20T14:36:46;5.68;58.12
65824;SHT31;52585;47.566;19.056;2022-12-20T14:39:21;5.68;58.17
65824;SHT31;52585;47.566;19.056;2022-12-20T14:44:34;5.66;58.19
65824;SHT31;52585;47.566;19.056;2022-12-20T14:47:01;5.65;58.16
65824;SHT31;52585;47.566;19.056;2022-12-20T14:49:46;5.64;58.17
65824;SHT31;52585;47.566;19.056;2022-12-20T14:52:20;5.63;58.20
65824;SHT31;52585;47.566;19.056;2022-12-20T14:55:06;5.62;58.22
65824;SHT31;52585;47.566;19.056;2022-12-20T14:57:43;5.62;58.21
65824;SHT31;52585;47.566;19.056;2022-12-20T15:08:20;5.59;58.46
65824;SHT31;52585;47.566;19.056;2022-12-20T15:13:26;5.57;58.53
65824;SHT31;52585;47.566;19.056;2022-12-20T15:15:59;5.54;58.61
65824;SHT31;52585;47.566;19.056;2022-12-20T15:18:37;5.54;58.65
65824;SHT31;52585;47.566;19.056;2022-12-20T15:21:14;5.53;58.73
65824;SHT31;52585;47.566;19.056;2022-12-20T15:23:50;5.53;58.80
65824;SHT31;52585;47.566;19.056;2022-12-20T15:26:22;5.52;58.82
65824;SHT31;52585;47.566;19.056;2022-12-20T15:28:50;5.51;58.86
65824;SHT31;52585;47.566;19.056;2022-12-20T15:31:17;5.49;58.91
65824;SHT31;52585;47.566;19.056;2022-12-20T15:33:46;5.49;58.99
65824;SHT31;52585;47.566;19.056;2022-12-20T15:36:19;5.48;58.99
65824;SHT31;52585;47.566;19.056;2022-12-20T15:38:50;5.46;59.04
65824;SHT31;52585;47.566;19.056;2022-12-20T15:41:24;5.45;59.14
65824;SHT31;52585;47.566;19.056;2022-12-20T15:43:54;5.44;59.15
65824;SHT31;52585;47.566;19.056;2022-12-20T15:47:07;5.48;59.38
65824;SHT31;52585;47.566;19.056;2022-12-20T15:49:37;5.60;59.49
65824;SHT31;52585;47.566;19.056;2022-12-20T15:52:03;5.81;59.36
65824;SHT31;52585;47.566;19.056;2022-12-20T15:54:30;6.08;58.92
65824;SHT31;52585;47.566;19.056;2022-12-20T15:57:01;6.35;58.46
65824;SHT31;52585;47.566;19.056;2022-12-20T15:59:31;6.61;57.92
65824;SHT31;52585;47.566;19.056;2022-12-20T16:01:57;6.86;57.47
65824;SHT31;52585;47.566;19.056;2022-12-20T16:04:24;7.09;56.95
65824;SHT31;52585;47.566;19.056;2022-12-20T16:06:52;7.32;56.66
65824;SHT31;52585;47.566;19.056;2022-12-20T16:09:19;7.54;55.76
65824;SHT31;52585;47.566;19.056;2022-12-20T16:11:45;7.73;55.66
65824;SHT31;52585;47.566;19.056;2022-12-20T16:14:16;7.91;54.98
65824;SHT31;52585;47.566;19.056;2022-12-20T16:16:48;8.07;54.79
65824;SHT31;52585;47.566;19.056;2022-12-20T16:19:14;8.22;54.55
65824;SHT31;52585;47.566;19.056;2022-12-20T16:21:48;8.36;54.41
65824;SHT31;52585;47.566;19.056;2022-12-20T16:24:17;8.49;54.02
65824;SHT31;52585;47.566;19.056;2022-12-20T16:26:44;8.62;53.55
65824;SHT31;52585;47.566;19.056;2022-12-20T16:29:12;8.73;53.25
65824;SHT31;52585;47.566;19.056;2022-12-20T16:31:40;8.83;52.99
65824;SHT31;52585;47.566;19.056;2022-12-20T16:34:14;8.95;53.14
65824;SHT31;52585;47.566;19.056;2022-12-20T16:36:41;9.05;53.23
65824;SHT31;52585;47.566;19.056;2022-12-20T16:39:08;9.16;52.71
65824;SHT31;52585;47.566;19.056;2022-12-20T16:41:35;9.24;52.36
65824;SHT31;52585;47.566;19.056;2022-12-20T16:44:03;9.31;51.95
65824;SHT31;52585;47.566;19.056;2022-12-20T16:46:29;9.38;52.10
65824;SHT31;52585;47.566;19.056;2022-12-20T16:48:57;9.46;51.71
65824;SHT31;52585;47.566;19.056;2022-12-20T16:51:25;9.53;51.49
65824;SHT31;52585;47.566;19.056;2022-12-20T16:54:11;9.59;51.84
65824;SHT31;52585;47.566;19.056;2022-12-20T16:56:41;9.65;51.35
65824;SHT31;52585;47.566;19.056;2022-12-20T16:59:11;9.71;51.37
65824;SHT31;52585;47.566;19.056;2022-12-20T17:01:38;9.75;51.18
65824;SHT31;52585;47.566;19.056;2022-12-20T17:04:08;9.80;50.78
65824;SHT31;52585;47.566;19.056;2022-12-20T17:06:40;9.85;50.49
65824;SHT31;52585;47.566;19.056;2022-12-20T17:09:07;9.90;51.02
65824;SHT31;52585;47.566;19.056;2022-12-20T17:11:33;9.94;50.48
65824;SHT31;52585;47.566;19.056;2022-12-20T17:13:59;10.00;50.03
65824;SHT31;52585;47.566;19.056;2022-12-20T17:16:26;10.10;50.12
65824;SHT31;52585;47.566;19.056;2022-12-20T17:18:53;10.19;50.18
65824;SHT31;52585;47.566;19.056;2022-12-20T17:23:57;9.93;50.09
65824;SHT31;52585;47.566;19.056;2022-12-20T17:26:25;9.69;50.78
65824;SHT31;52585;47.566;19.056;2022-12-20T17:28:54;9.45;50.80
65824;SHT31;52585;47.566;19.056;2022-12-20T17:31:31;9.20;51.18
65824;SHT31;52585;47.566;19.056;2022-12-20T17:34:14;8.99;51.57
65824;SHT31;52585;47.566;19.056;2022-12-20T17:36:52;8.75;51.78
65824;SHT31;52585;47.566;19.056;2022-12-20T17:39:21;8.55;52.17
65824;SHT31;52585;47.566;19.056;2022-12-20T17:41:49;8.36;52.47
65824;SHT31;52585;47.566;19.056;2022-12-20T17:46:50;8.03;53.01
65824;SHT31;52585;47.566;19.056;2022-12-20T17:49:18;7.87;53.33
65824;SHT31;52585;47.566;19.056;2022-12-20T17:51:44;7.75;53.60
65824;SHT31;52585;47.566;19.056;2022-12-20T17:54:18;7.62;53.91
65824;SHT31;52585;47.566;19.056;2022-12-20T17:56:51;7.50;54.19
65824;SHT31;52585;47.566;19.056;2022-12-20T17:59:20;7.39;54.44
65824;SHT31;52585;47.566;19.056;2022-12-20T18:01:46;7.29;54.72
65824;SHT31;52585;47.566;19.056;2022-12-20T18:04:14;7.21;54.87
65824;SHT31;52585;47.566;19.056;2022-12-20T18:06:41;7.13;55.08
65824;SHT31;52585;47.566;19.056;2022-12-20T18:09:13;7.06;55.26
65824;SHT31;52585;47.566;19.056;2022-12-20T18:11:45;7.00;55.40
65824;SHT31;52585;47.566;19.056;2022-12-20T18:14:12;6.95;55.50
65824;SHT31;52585;47.566;19.056;2022-12-20T18:16:39;6.88;55.68